sensor_id;sensor_type;location;lat;lon;timestamp;P1;durP1;ratioP1;P2;durP2;ratioP2
26824;SDS011;14402;48.178;11.566;2023-02-25T00:00:14;8.3;;;6.5;;
26824;SDS011;14402;48.178;11.566;2023-02-25T00:00:44;6.9;;;5.5;;
26824;SDS011;14402;48.178;11.566;2023-02-25T00:01:14;5.4;;;4.5;;
26824;SDS011;14402;48.178;11.566;2023-02-25T00:01:44;5.4;;;4.5;;
26824;SDS011;14402;48.178;11.566;2023-02-25T00:02:14;5.4;;;4.5;;
26824;SDS011;14402;48.178;11.566;2023-02-25T00:02:44;5.4;;;4.5;;
26824;SDS011;14402;48.178;11.566;2023-02-25T00:03:14;5.3;;;4.5;;
26824;SDS011;14402;48.178;11.566;2023-02-25T00:03:44;5.3;;;4.5;;
26824;SDS011;14402;48.178;11.566;2023-02-25T00:04:14;5.3;;;4.5;;
26824;SDS011;14402;48.178;11.566;2023-02-25T00:04:44;6.1;;;5.0;;
26824;SDS011;14402;48.178;11.566;2023-02-25T00:05:14;6.9;;;5.5;;
26824;SDS011;14402;48.178;11.566;2023-02-25T00:05:44;6.9;;;5.5;;
26824;SDS011;14402;48.178;11.566;2023-02-25T00:06:15;6.9;;;5.5;;
26824;SDS011;14402;48.178;11.566;2023-02-25T00:06:45;6.6;;;5.2;;
26824;SDS011;14402;48.178;11.566;2023-02-25T00:07:15;6.2;;;4.8;;
26824;SDS011;14402;48.178;11.566;2023-02-25T00:07:45;6.2;;;4.8;;
26824;SDS011;14402;48.178;11.566;2023-02-25T00:08:15;6.2;;;4.8;;
26824;SDS011;14402;48.178;11.566;2023-02-25T00:08:45;5.7;;;4.5;;
26824;SDS011;14402;48.178;11.566;2023-02-25T00:09:15;5.2;;;4.2;;
26824;SDS011;14402;48.178;11.566;2023-02-25T00:09:45;5.2;;;4.2;;
26824;SDS011;14402;48.178;11.566;2023-02-25T00:10:15;5.2;;;4.2;;
26824;SDS011;14402;48.178;11.566;2023-02-25T00:10:45;4.9;;;3.9;;
26824;SDS011;14402;48.178;11.566;2023-02-25T00:11:16;4.7;;;3.6;;
26824;SDS011;14402;48.178;11.566;2023-02-25T00:11:45;4.7;;;3.6;;
26824;SDS011;14402;48.178;11.566;2023-02-25T00:12:16;4.7;;;3.6;;
26824;SDS011;14402;48.178;11.566;2023-02-25T00:12:46;4.7;;;3.7;;
26824;SDS011;14402;48.178;11.566;2023-02-25T00:13:16;4.7;;;3.7;;
26824;SDS011;14402;48.178;11.566;2023-02-25T00:13:46;4.7;;;3.7;;
26824;SDS011;14402;48.178;11.566;2023-02-25T00:14:16;4.7;;;3.7;;
26824;SDS011;14402;48.178;11.566;2023-02-25T00:14:46;5.1;;;3.5;;
26824;SDS011;14402;48.178;11.566;2023-02-25T00:15:16;5.6;;;3.3;;
26824;SDS011;14402;48.178;11.566;2023-02-25T00:15:46;5.6;;;3.3;;
26824;SDS011;14402;48.178;11.566;2023-02-25T00:16:16;5.6;;;3.3;;
26824;SDS011;14402;48.178;11.566;2023-02-25T00:16:47;5.1;;;3.2;;
26824;SDS011;14402;48.178;11.566;2023-02-25T00:17:17;4.6;;;3.2;;
26824;SDS011;14402;48.178;11.566;2023-02-25T00:17:46;4.6;;;3.2;;
26824;SDS011;14402;48.178;11.566;2023-02-25T00:18:17;4.6;;;3.2;;
26824;SDS011;14402;48.178;11.566;2023-02-25T00:18:47;3.9;;;2.8;;
26824;SDS011;14402;48.178;11.566;2023-02-25T00:19:17;3.2;;;2.5;;
26824;SDS011;14402;48.178;11.566;2023-02-25T00:19:47;3.2;;;2.5;;
26824;SDS011;14402;48.178;11.566;2023-02-25T00:20:17;3.2;;;2.5;;
26824;SDS011;14402;48.178;11.566;2023-02-25T00:20:47;3.6;;;2.7;;
26824;SDS011;14402;48.178;11.566;2023-02-25T00:21:17;3.9;;;2.9;;
26824;SDS011;14402;48.178;11.566;2023-02-25T00:21:47;3.9;;;2.9;;
26824;SDS011;14402;48.178;11.566;2023-02-25T00:22:17;3.9;;;2.9;;
26824;SDS011;14402;48.178;11.566;2023-02-25T00:22:47;5.1;;;2.9;;
26824;SDS011;14402;48.178;11.566;2023-02-25T00:23:17;6.2;;;2.9;;
26824;SDS011;14402;48.178;11.566;2023-02-25T00:23:48;6.2;;;2.9;;
26824;SDS011;14402;48.178;11.566;2023-02-25T00:24:18;6.2;;;2.9;;
26824;SDS011;14402;48.178;11.566;2023-02-25T00:24:50;5.1;;;2.7;;
26824;SDS011;14402;48.178;11.566;2023-02-25T00:25:18;3.9;;;2.4;;
26824;SDS011;14402;48.178;11.566;2023-02-25T00:25:48;3.9;;;2.4;;
26824;SDS011;14402;48.178;11.566;2023-02-25T00:26:18;3.9;;;2.4;;
26824;SDS011;14402;48.178;11.566;2023-02-25T00:26:48;4.2;;;2.3;;
26824;SDS011;14402;48.178;11.566;2023-02-25T00:27:18;4.4;;;2.2;;
26824;SDS011;14402;48.178;11.566;2023-02-25T00:27:48;4.4;;;2.2;;
26824;SDS011;14402;48.178;11.566;2023-02-25T00:28:18;4.4;;;2.2;;
26824;SDS011;14402;48.178;11.566;2023-02-25T00:28:49;3.5;;;2.1;;
26824;SDS011;14402;48.178;11.566;2023-02-25T00:29:18;2.5;;;2.0;;
26824;SDS011;14402;48.178;11.566;2023-02-25T00:29:50;2.5;;;2.0;;
26824;SDS011;14402;48.178;11.566;2023-02-25T00:30:18;2.5;;;2.0;;
26824;SDS011;14402;48.178;11.566;2023-02-25T00:30:49;2.5;;;2.0;;
26824;SDS011;14402;48.178;11.566;2023-02-25T00:31:19;2.6;;;2.0;;
26824;SDS011;14402;48.178;11.566;2023-02-25T00:31:49;2.6;;;2.0;;
26824;SDS011;14402;48.178;11.566;2023-02-25T00:32:19;2.6;;;2.0;;
26824;SDS011;14402;48.178;11.566;2023-02-25T00:32:49;2.4;;;2.0;;
26824;SDS011;14402;48.178;11.566;2023-02-25T00:33:19;2.2;;;2.0;;
26824;SDS011;14402;48.178;11.566;2023-02-25T00:33:50;2.2;;;2.0;;
26824;SDS011;14402;48.178;11.566;2023-02-25T00:34:19;2.2;;;2.0;;
26824;SDS011;14402;48.178;11.566;2023-02-25T00:34:49;2.4;;;2.0;;
26824;SDS011;14402;48.178;11.566;2023-02-25T00:35:19;2.6;;;2.0;;
26824;SDS011;14402;48.178;11.566;2023-02-25T00:35:49;2.6;;;2.0;;
26824;SDS011;14402;48.178;11.566;2023-02-25T00:36:20;2.6;;;2.0;;
26824;SDS011;14402;48.178;11.566;2023-02-25T00:36:49;3.1;;;2.0;;
26824;SDS011;14402;48.178;11.566;2023-02-25T00:37:19;3.6;;;2.0;;
26824;SDS011;14402;48.178;11.566;2023-02-25T00:37:50;3.6;;;2.0;;
26824;SDS011;14402;48.178;11.566;2023-02-25T00:38:20;3.6;;;2.0;;
26824;SDS011;14402;48.178;11.566;2023-02-25T00:38:50;3.6;;;2.1;;
26824;SDS011;14402;48.178;11.566;2023-02-25T00:39:20;3.6;;;2.2;;
26824;SDS011;14402;48.178;11.566;2023-02-25T00:39:50;3.6;;;2.2;;
26824;SDS011;14402;48.178;11.566;2023-02-25T00:40:20;3.4;;;2.1;;
26824;SDS011;14402;48.178;11.566;2023-02-25T00:40:50;3.3;;;2.0;;
26824;SDS011;14402;48.178;11.566;2023-02-25T00:41:22;3.3;;;2.0;;
26824;SDS011;14402;48.178;11.566;2023-02-25T00:41:50;3.3;;;2.0;;
26824;SDS011;14402;48.178;11.566;2023-02-25T00:42:20;3.3;;;2.1;;
26824;SDS011;14402;48.178;11.566;2023-02-25T00:42:50;3.3;;;2.2;;
26824;SDS011;14402;48.178;11.566;2023-02-25T00:43:21;3.3;;;2.2;;
26824;SDS011;14402;48.178;11.566;2023-02-25T00:43:51;3.3;;;2.2;;
26824;SDS011;14402;48.178;11.566;2023-02-25T00:44:21;3.3;;;2.2;;
26824;SDS011;14402;48.178;11.566;2023-02-25T00:44:51;3.4;;;2.1;;
26824;SDS011;14402;48.178;11.566;2023-02-25T00:45:21;3.4;;;2.1;;
26824;SDS011;14402;48.178;11.566;2023-02-25T00:45:51;3.4;;;2.1;;
26824;SDS011;14402;48.178;11.566;2023-02-25T00:46:21;3.2;;;2.0;;
26824;SDS011;14402;48.178;11.566;2023-02-25T00:46:51;2.9;;;2.0;;
26824;SDS011;14402;48.178;11.566;2023-02-25T00:47:21;2.9;;;2.0;;
26824;SDS011;14402;48.178;11.566;2023-02-25T00:47:51;2.9;;;2.0;;
26824;SDS011;14402;48.178;11.566;2023-02-25T00:48:21;2.5;;;1.9;;
26824;SDS011;14402;48.178;11.566;2023-02-25T00:48:51;2.1;;;1.8;;
26824;SDS011;14402;48.178;11.566;2023-02-25T00:49:22;2.1;;;1.8;;
26824;SDS011;14402;48.178;11.566;2023-02-25T00:49:52;2.1;;;1.8;;
26824;SDS011;14402;48.178;11.566;2023-02-25T00:50:22;2.3;;;1.8;;
26824;SDS011;14402;48.178;11.566;2023-02-25T00:50:52;2.5;;;1.9;;
26824;SDS011;14402;48.178;11.566;2023-02-25T00:51:23;2.5;;;1.9;;
26824;SDS011;14402;48.178;11.566;2023-02-25T00:51:52;2.5;;;1.9;;
26824;SDS011;14402;48.178;11.566;2023-02-25T00:52:22;2.8;;;2.0;;
26824;SDS011;14402;48.178;11.566;2023-02-25T00:52:52;3.2;;;2.1;;
26824;SDS011;14402;48.178;11.566;2023-02-25T00:53:22;3.2;;;2.1;;
26824;SDS011;14402;48.178;11.566;2023-02-25T00:53:53;3.2;;;2.1;;
26824;SDS011;14402;48.178;11.566;2023-02-25T00:54:22;2.8;;;2.0;;
26824;SDS011;14402;48.178;11.566;2023-02-25T00:54:52;2.3;;;2.0;;
26824;SDS011;14402;48.178;11.566;2023-02-25T00:55:22;2.3;;;2.0;;
26824;SDS011;14402;48.178;11.566;2023-02-25T00:55:57;2.3;;;2.0;;
26824;SDS011;14402;48.178;11.566;2023-02-25T00:56:23;2.3;;;2.0;;
26824;SDS011;14402;48.178;11.566;2023-02-25T00:56:53;2.3;;;2.1;;
26824;SDS011;14402;48.178;11.566;2023-02-25T00:57:23;2.3;;;2.1;;
26824;SDS011;14402;48.178;11.566;2023-02-25T00:57:53;2.3;;;2.1;;
26824;SDS011;14402;48.178;11.566;2023-02-25T00:58:23;2.4;;;2.0;;
26824;SDS011;14402;48.178;11.566;2023-02-25T00:58:53;2.5;;;1.9;;
26824;SDS011;14402;48.178;11.566;2023-02-25T00:59:23;2.5;;;1.9;;
26824;SDS011;14402;48.178;11.566;2023-02-25T01:01:32;2.8;;;2.0;;
26824;SDS011;14402;48.178;11.566;2023-02-25T01:01:33;3.1;;;2.0;;
26824;SDS011;14402;48.178;11.566;2023-02-25T01:01:33;3.1;;;2.0;;
26824;SDS011;14402;48.178;11.566;2023-02-25T01:01:54;3.1;;;2.0;;
26824;SDS011;14402;48.178;11.566;2023-02-25T01:02:24;3.0;;;1.9;;
26824;SDS011;14402;48.178;11.566;2023-02-25T01:02:54;2.9;;;1.8;;
26824;SDS011;14402;48.178;11.566;2023-02-25T01:03:24;2.9;;;1.8;;
26824;SDS011;14402;48.178;11.566;2023-02-25T01:03:55;2.9;;;1.8;;
26824;SDS011;14402;48.178;11.566;2023-02-25T01:04:24;2.6;;;1.8;;
26824;SDS011;14402;48.178;11.566;2023-02-25T01:04:54;2.3;;;1.8;;
26824;SDS011;14402;48.178;11.566;2023-02-25T01:05:24;2.3;;;1.8;;
26824;SDS011;14402;48.178;11.566;2023-02-25T01:05:54;2.3;;;1.8;;
26824;SDS011;14402;48.178;11.566;2023-02-25T01:06:25;2.3;;;1.8;;
26824;SDS011;14402;48.178;11.566;2023-02-25T01:06:54;2.4;;;1.8;;
26824;SDS011;14402;48.178;11.566;2023-02-25T01:07:24;2.4;;;1.8;;
26824;SDS011;14402;48.178;11.566;2023-02-25T01:07:55;2.4;;;1.8;;
26824;SDS011;14402;48.178;11.566;2023-02-25T01:08:25;2.3;;;1.8;;
26824;SDS011;14402;48.178;11.566;2023-02-25T01:08:55;2.3;;;1.9;;
26824;SDS011;14402;48.178;11.566;2023-02-25T01:09:25;2.3;;;1.9;;
26824;SDS011;14402;48.178;11.566;2023-02-25T01:09:55;2.3;;;1.9;;
26824;SDS011;14402;48.178;11.566;2023-02-25T01:10:26;2.4;;;2.0;;
26824;SDS011;14402;48.178;11.566;2023-02-25T01:10:55;2.6;;;2.0;;
26824;SDS011;14402;48.178;11.566;2023-02-25T01:11:25;2.6;;;2.0;;
26824;SDS011;14402;48.178;11.566;2023-02-25T01:11:55;2.6;;;2.0;;
26824;SDS011;14402;48.178;11.566;2023-02-25T01:12:25;2.4;;;2.0;;
26824;SDS011;14402;48.178;11.566;2023-02-25T01:12:55;2.3;;;2.1;;
26824;SDS011;14402;48.178;11.566;2023-02-25T01:13:25;2.3;;;2.1;;
26824;SDS011;14402;48.178;11.566;2023-02-25T01:13:56;2.3;;;2.1;;
26824;SDS011;14402;48.178;11.566;2023-02-25T01:14:26;2.3;;;1.9;;
26824;SDS011;14402;48.178;11.566;2023-02-25T01:14:56;2.4;;;1.8;;
26824;SDS011;14402;48.178;11.566;2023-02-25T01:15:26;2.4;;;1.8;;
26824;SDS011;14402;48.178;11.566;2023-02-25T01:15:56;2.4;;;1.8;;
26824;SDS011;14402;48.178;11.566;2023-02-25T01:16:27;2.4;;;1.8;;
26824;SDS011;14402;48.178;11.566;2023-02-25T01:16:56;2.4;;;1.9;;
26824;SDS011;14402;48.178;11.566;2023-02-25T01:17:27;2.4;;;1.9;;
26824;SDS011;14402;48.178;11.566;2023-02-25T01:17:56;2.4;;;1.9;;
26824;SDS011;14402;48.178;11.566;2023-02-25T01:18:26;2.2;;;1.8;;
26824;SDS011;14402;48.178;11.566;2023-02-25T01:18:57;2.1;;;1.8;;
26824;SDS011;14402;48.178;11.566;2023-02-25T01:19:26;2.1;;;1.8;;
26824;SDS011;14402;48.178;11.566;2023-02-25T01:19:57;2.1;;;1.8;;
26824;SDS011;14402;48.178;11.566;2023-02-25T01:20:26;1.9;;;1.8;;
26824;SDS011;14402;48.178;11.566;2023-02-25T01:20:57;1.8;;;1.7;;
26824;SDS011;14402;48.178;11.566;2023-02-25T01:21:27;1.8;;;1.7;;
26824;SDS011;14402;48.178;11.566;2023-02-25T01:21:57;1.8;;;1.7;;
26824;SDS011;14402;48.178;11.566;2023-02-25T01:22:27;2.2;;;1.9;;
26824;SDS011;14402;48.178;11.566;2023-02-25T01:22:57;2.5;;;2.0;;
26824;SDS011;14402;48.178;11.566;2023-02-25T01:23:27;2.5;;;2.0;;
26824;SDS011;14402;48.178;11.566;2023-02-25T01:23:58;2.5;;;2.0;;
26824;SDS011;14402;48.178;11.566;2023-02-25T01:24:28;2.3;;;1.9;;
26824;SDS011;14402;48.178;11.566;2023-02-25T01:24:57;2.2;;;1.7;;
26824;SDS011;14402;48.178;11.566;2023-02-25T01:25:27;2.2;;;1.7;;
26824;SDS011;14402;48.178;11.566;2023-02-25T01:25:57;2.2;;;1.7;;
26824;SDS011;14402;48.178;11.566;2023-02-25T01:26:28;3.0;;;1.8;;
26824;SDS011;14402;48.178;11.566;2023-02-25T01:26:58;3.7;;;1.9;;
26824;SDS011;14402;48.178;11.566;2023-02-25T01:27:28;3.7;;;1.9;;
26824;SDS011;14402;48.178;11.566;2023-02-25T01:27:58;3.7;;;1.9;;
26824;SDS011;14402;48.178;11.566;2023-02-25T01:28:28;3.0;;;2.0;;
26824;SDS011;14402;48.178;11.566;2023-02-25T01:28:58;2.3;;;2.1;;
26824;SDS011;14402;48.178;11.566;2023-02-25T01:29:29;2.3;;;2.1;;
26824;SDS011;14402;48.178;11.566;2023-02-25T01:29:58;2.3;;;2.1;;
26824;SDS011;14402;48.178;11.566;2023-02-25T01:30:28;2.3;;;2.1;;
26824;SDS011;14402;48.178;11.566;2023-02-25T01:30:58;2.4;;;2.1;;
26824;SDS011;14402;48.178;11.566;2023-02-25T01:31:28;2.4;;;2.1;;
26824;SDS011;14402;48.178;11.566;2023-02-25T01:31:59;2.4;;;2.1;;
26824;SDS011;14402;48.178;11.566;2023-02-25T01:32:28;2.6;;;2.2;;
26824;SDS011;14402;48.178;11.566;2023-02-25T01:33:06;2.7;;;2.3;;
26824;SDS011;14402;48.178;11.566;2023-02-25T01:33:29;2.7;;;2.3;;
26824;SDS011;14402;48.178;11.566;2023-02-25T01:33:59;2.7;;;2.3;;
26824;SDS011;14402;48.178;11.566;2023-02-25T01:34:29;2.6;;;2.2;;
26824;SDS011;14402;48.178;11.566;2023-02-25T01:34:59;2.5;;;2.2;;
26824;SDS011;14402;48.178;11.566;2023-02-25T01:35:29;2.5;;;2.2;;
26824;SDS011;14402;48.178;11.566;2023-02-25T01:36:00;2.5;;;2.2;;
26824;SDS011;14402;48.178;11.566;2023-02-25T01:36:30;2.8;;;2.2;;
26824;SDS011;14402;48.178;11.566;2023-02-25T01:36:59;3.2;;;2.3;;
26824;SDS011;14402;48.178;11.566;2023-02-25T01:37:29;3.2;;;2.3;;
26824;SDS011;14402;48.178;11.566;2023-02-25T01:38:00;3.2;;;2.3;;
26824;SDS011;14402;48.178;11.566;2023-02-25T01:38:29;3.8;;;2.2;;
26824;SDS011;14402;48.178;11.566;2023-02-25T01:39:00;4.3;;;2.2;;
26824;SDS011;14402;48.178;11.566;2023-02-25T01:39:30;4.3;;;2.2;;
26824;SDS011;14402;48.178;11.566;2023-02-25T01:40:00;4.3;;;2.2;;
26824;SDS011;14402;48.178;11.566;2023-02-25T01:40:30;3.6;;;2.3;;
26824;SDS011;14402;48.178;11.566;2023-02-25T01:41:00;2.8;;;2.5;;
26824;SDS011;14402;48.178;11.566;2023-02-25T01:41:31;2.8;;;2.5;;
26824;SDS011;14402;48.178;11.566;2023-02-25T01:42:01;2.8;;;2.5;;
26824;SDS011;14402;48.178;11.566;2023-02-25T01:42:30;2.9;;;2.5;;
26824;SDS011;14402;48.178;11.566;2023-02-25T01:43:00;3.0;;;2.6;;
26824;SDS011;14402;48.178;11.566;2023-02-25T01:43:30;3.0;;;2.6;;
26824;SDS011;14402;48.178;11.566;2023-02-25T01:44:01;3.0;;;2.6;;
26824;SDS011;14402;48.178;11.566;2023-02-25T01:44:31;3.0;;;2.6;;
26824;SDS011;14402;48.178;11.566;2023-02-25T01:45:32;2.9;;;2.6;;
26824;SDS011;14402;48.178;11.566;2023-02-25T01:45:33;2.9;;;2.6;;
26824;SDS011;14402;48.178;11.566;2023-02-25T01:46:01;2.9;;;2.6;;
26824;SDS011;14402;48.178;11.566;2023-02-25T01:46:31;2.6;;;2.3;;
26824;SDS011;14402;48.178;11.566;2023-02-25T01:47:01;2.3;;;2.1;;
26824;SDS011;14402;48.178;11.566;2023-02-25T01:47:31;2.3;;;2.1;;
26824;SDS011;14402;48.178;11.566;2023-02-25T01:48:03;2.3;;;2.1;;
26824;SDS011;14402;48.178;11.566;2023-02-25T01:48:32;2.5;;;2.2;;
26824;SDS011;14402;48.178;11.566;2023-02-25T01:49:02;2.7;;;2.4;;
26824;SDS011;14402;48.178;11.566;2023-02-25T01:49:32;2.7;;;2.4;;
26824;SDS011;14402;48.178;11.566;2023-02-25T01:50:02;2.7;;;2.4;;
26824;SDS011;14402;48.178;11.566;2023-02-25T01:50:33;2.7;;;2.4;;
26824;SDS011;14402;48.178;11.566;2023-02-25T01:51:02;2.6;;;2.4;;
26824;SDS011;14402;48.178;11.566;2023-02-25T01:51:32;2.6;;;2.4;;
26824;SDS011;14402;48.178;11.566;2023-02-25T01:52:03;2.6;;;2.4;;
26824;SDS011;14402;48.178;11.566;2023-02-25T01:52:32;2.6;;;2.4;;
26824;SDS011;14402;48.178;11.566;2023-02-25T01:53:02;2.6;;;2.4;;
26824;SDS011;14402;48.178;11.566;2023-02-25T01:53:33;2.6;;;2.4;;
26824;SDS011;14402;48.178;11.566;2023-02-25T01:54:02;2.6;;;2.4;;
26824;SDS011;14402;48.178;11.566;2023-02-25T01:54:32;2.8;;;2.5;;
26824;SDS011;14402;48.178;11.566;2023-02-25T01:55:03;3.0;;;2.5;;
26824;SDS011;14402;48.178;11.566;2023-02-25T01:55:33;3.0;;;2.5;;
26824;SDS011;14402;48.178;11.566;2023-02-25T01:56:03;3.0;;;2.5;;
26824;SDS011;14402;48.178;11.566;2023-02-25T01:56:33;2.8;;;2.4;;
26824;SDS011;14402;48.178;11.566;2023-02-25T01:57:05;2.6;;;2.3;;
26824;SDS011;14402;48.178;11.566;2023-02-25T01:57:33;2.6;;;2.3;;
26824;SDS011;14402;48.178;11.566;2023-02-25T01:58:03;2.6;;;2.3;;
26824;SDS011;14402;48.178;11.566;2023-02-25T01:58:33;2.4;;;2.2;;
26824;SDS011;14402;48.178;11.566;2023-02-25T01:59:03;2.3;;;2.1;;
26824;SDS011;14402;48.178;11.566;2023-02-25T01:59:33;2.3;;;2.1;;
26824;SDS011;14402;48.178;11.566;2023-02-25T02:00:04;2.3;;;2.1;;
26824;SDS011;14402;48.178;11.566;2023-02-25T02:00:34;2.4;;;2.0;;
26824;SDS011;14402;48.178;11.566;2023-02-25T02:01:05;2.5;;;2.0;;
26824;SDS011;14402;48.178;11.566;2023-02-25T02:01:34;2.5;;;2.0;;
26824;SDS011;14402;48.178;11.566;2023-02-25T02:02:04;2.5;;;2.0;;
26824;SDS011;14402;48.178;11.566;2023-02-25T02:02:34;2.5;;;2.0;;
26824;SDS011;14402;48.178;11.566;2023-02-25T02:03:04;2.5;;;2.1;;
26824;SDS011;14402;48.178;11.566;2023-02-25T02:03:34;2.5;;;2.1;;
26824;SDS011;14402;48.178;11.566;2023-02-25T02:04:04;2.5;;;2.1;;
26824;SDS011;14402;48.178;11.566;2023-02-25T02:04:34;2.7;;;2.3;;
26824;SDS011;14402;48.178;11.566;2023-02-25T02:05:04;2.9;;;2.6;;
26824;SDS011;14402;48.178;11.566;2023-02-25T02:05:36;2.9;;;2.6;;
26824;SDS011;14402;48.178;11.566;2023-02-25T02:06:06;2.9;;;2.6;;
26824;SDS011;14402;48.178;11.566;2023-02-25T02:06:36;2.6;;;2.3;;
26824;SDS011;14402;48.178;11.566;2023-02-25T02:07:05;2.2;;;2.0;;
26824;SDS011;14402;48.178;11.566;2023-02-25T02:07:35;2.2;;;2.0;;
26824;SDS011;14402;48.178;11.566;2023-02-25T02:08:05;2.2;;;2.0;;
26824;SDS011;14402;48.178;11.566;2023-02-25T02:08:35;2.7;;;2.0;;
26824;SDS011;14402;48.178;11.566;2023-02-25T02:09:06;3.1;;;2.1;;
26824;SDS011;14402;48.178;11.566;2023-02-25T02:09:35;3.1;;;2.1;;
26824;SDS011;14402;48.178;11.566;2023-02-25T02:10:05;3.1;;;2.1;;
26824;SDS011;14402;48.178;11.566;2023-02-25T02:10:35;2.9;;;2.2;;
26824;SDS011;14402;48.178;11.566;2023-02-25T02:11:05;2.8;;;2.4;;
26824;SDS011;14402;48.178;11.566;2023-02-25T02:11:35;2.8;;;2.4;;
26824;SDS011;14402;48.178;11.566;2023-02-25T02:12:05;2.8;;;2.4;;
26824;SDS011;14402;48.178;11.566;2023-02-25T02:12:36;2.9;;;2.3;;
26824;SDS011;14402;48.178;11.566;2023-02-25T02:13:05;3.1;;;2.3;;
26824;SDS011;14402;48.178;11.566;2023-02-25T02:13:36;3.1;;;2.3;;
26824;SDS011;14402;48.178;11.566;2023-02-25T02:14:06;3.1;;;2.3;;
26824;SDS011;14402;48.178;11.566;2023-02-25T02:14:37;2.8;;;2.3;;
26824;SDS011;14402;48.178;11.566;2023-02-25T02:15:07;2.6;;;2.4;;
26824;SDS011;14402;48.178;11.566;2023-02-25T02:15:37;2.6;;;2.4;;
26824;SDS011;14402;48.178;11.566;2023-02-25T02:16:11;2.6;;;2.4;;
26824;SDS011;14402;48.178;11.566;2023-02-25T02:16:41;2.7;;;2.3;;
26824;SDS011;14402;48.178;11.566;2023-02-25T02:17:11;2.8;;;2.2;;
26824;SDS011;14402;48.178;11.566;2023-02-25T02:17:37;2.8;;;2.2;;
26824;SDS011;14402;48.178;11.566;2023-02-25T02:18:06;2.8;;;2.2;;
26824;SDS011;14402;48.178;11.566;2023-02-25T02:18:36;2.8;;;2.3;;
26824;SDS011;14402;48.178;11.566;2023-02-25T02:19:09;2.8;;;2.4;;
26824;SDS011;14402;48.178;11.566;2023-02-25T02:19:42;2.8;;;2.4;;
26824;SDS011;14402;48.178;11.566;2023-02-25T02:20:10;2.8;;;2.4;;
26824;SDS011;14402;48.178;11.566;2023-02-25T02:20:39;2.8;;;2.5;;
26824;SDS011;14402;48.178;11.566;2023-02-25T02:21:10;2.9;;;2.6;;
26824;SDS011;14402;48.178;11.566;2023-02-25T02:21:42;2.9;;;2.6;;
26824;SDS011;14402;48.178;11.566;2023-02-25T02:22:08;2.9;;;2.6;;
26824;SDS011;14402;48.178;11.566;2023-02-25T02:22:40;2.7;;;2.4;;
26824;SDS011;14402;48.178;11.566;2023-02-25T02:23:29;2.4;;;2.2;;
26824;SDS011;14402;48.178;11.566;2023-02-25T02:24:21;2.4;;;2.2;;
26824;SDS011;14402;48.178;11.566;2023-02-25T02:24:44;2.3;;;2.2;;
26824;SDS011;14402;48.178;11.566;2023-02-25T02:25:16;2.3;;;2.1;;
26824;SDS011;14402;48.178;11.566;2023-02-25T02:26:16;2.3;;;2.1;;
26824;SDS011;14402;48.178;11.566;2023-02-25T02:26:24;2.3;;;2.1;;
26824;SDS011;14402;48.178;11.566;2023-02-25T02:26:48;2.5;;;2.2;;
26824;SDS011;14402;48.178;11.566;2023-02-25T02:27:09;2.7;;;2.3;;
26824;SDS011;14402;48.178;11.566;2023-02-25T02:27:45;2.7;;;2.3;;
26824;SDS011;14402;48.178;11.566;2023-02-25T02:28:17;2.7;;;2.3;;
26824;SDS011;14402;48.178;11.566;2023-02-25T02:28:44;2.7;;;2.2;;
26824;SDS011;14402;48.178;11.566;2023-02-25T02:30:15;2.6;;;2.1;;
26824;SDS011;14402;48.178;11.566;2023-02-25T02:30:16;2.6;;;2.1;;
26824;SDS011;14402;48.178;11.566;2023-02-25T02:30:25;2.6;;;2.1;;
26824;SDS011;14402;48.178;11.566;2023-02-25T02:30:44;2.8;;;2.1;;
26824;SDS011;14402;48.178;11.566;2023-02-25T02:31:14;3.0;;;2.1;;
26824;SDS011;14402;48.178;11.566;2023-02-25T02:31:42;3.0;;;2.1;;
26824;SDS011;14402;48.178;11.566;2023-02-25T02:32:11;3.0;;;2.1;;
26824;SDS011;14402;48.178;11.566;2023-02-25T02:32:40;2.9;;;2.0;;
26824;SDS011;14402;48.178;11.566;2023-02-25T02:33:10;2.8;;;2.0;;
26824;SDS011;14402;48.178;11.566;2023-02-25T02:33:40;2.8;;;2.0;;
26824;SDS011;14402;48.178;11.566;2023-02-25T02:34:13;2.8;;;2.0;;
26824;SDS011;14402;48.178;11.566;2023-02-25T02:34:40;2.4;;;2.0;;
26824;SDS011;14402;48.178;11.566;2023-02-25T02:35:12;2.1;;;1.9;;
26824;SDS011;14402;48.178;11.566;2023-02-25T02:35:42;2.1;;;1.9;;
26824;SDS011;14402;48.178;11.566;2023-02-25T02:36:11;2.1;;;1.9;;
26824;SDS011;14402;48.178;11.566;2023-02-25T02:36:42;2.0;;;1.8;;
26824;SDS011;14402;48.178;11.566;2023-02-25T02:37:15;2.0;;;1.7;;
26824;SDS011;14402;48.178;11.566;2023-02-25T02:37:41;2.0;;;1.7;;
26824;SDS011;14402;48.178;11.566;2023-02-25T02:38:11;2.0;;;1.7;;
26824;SDS011;14402;48.178;11.566;2023-02-25T02:38:41;2.1;;;1.8;;
26824;SDS011;14402;48.178;11.566;2023-02-25T02:39:12;2.2;;;1.8;;
26824;SDS011;14402;48.178;11.566;2023-02-25T02:39:44;2.2;;;1.8;;
26824;SDS011;14402;48.178;11.566;2023-02-25T02:40:13;2.2;;;1.8;;
26824;SDS011;14402;48.178;11.566;2023-02-25T02:40:42;2.2;;;1.6;;
26824;SDS011;14402;48.178;11.566;2023-02-25T02:41:13;2.3;;;1.4;;
26824;SDS011;14402;48.178;11.566;2023-02-25T02:41:43;2.3;;;1.4;;
26824;SDS011;14402;48.178;11.566;2023-02-25T02:42:13;2.3;;;1.4;;
26824;SDS011;14402;48.178;11.566;2023-02-25T02:42:41;2.3;;;1.6;;
26824;SDS011;14402;48.178;11.566;2023-02-25T02:43:16;2.4;;;1.8;;
26824;SDS011;14402;48.178;11.566;2023-02-25T02:43:43;2.4;;;1.8;;
26824;SDS011;14402;48.178;11.566;2023-02-25T02:44:12;2.4;;;1.8;;
26824;SDS011;14402;48.178;11.566;2023-02-25T02:44:43;2.2;;;1.8;;
26824;SDS011;14402;48.178;11.566;2023-02-25T02:45:12;2.0;;;1.8;;
26824;SDS011;14402;48.178;11.566;2023-02-25T02:45:43;2.0;;;1.8;;
26824;SDS011;14402;48.178;11.566;2023-02-25T02:46:13;2.0;;;1.8;;
26824;SDS011;14402;48.178;11.566;2023-02-25T02:46:44;2.2;;;1.9;;
26824;SDS011;14402;48.178;11.566;2023-02-25T02:47:13;2.3;;;2.1;;
26824;SDS011;14402;48.178;11.566;2023-02-25T02:47:42;2.3;;;2.1;;
26824;SDS011;14402;48.178;11.566;2023-02-25T02:48:13;2.3;;;2.1;;
26824;SDS011;14402;48.178;11.566;2023-02-25T02:48:43;2.1;;;1.8;;
26824;SDS011;14402;48.178;11.566;2023-02-25T02:49:14;1.9;;;1.6;;
26824;SDS011;14402;48.178;11.566;2023-02-25T02:49:43;1.9;;;1.6;;
26824;SDS011;14402;48.178;11.566;2023-02-25T02:50:13;1.9;;;1.6;;
26824;SDS011;14402;48.178;11.566;2023-02-25T02:50:44;1.8;;;1.5;;
26824;SDS011;14402;48.178;11.566;2023-02-25T02:51:14;1.7;;;1.5;;
26824;SDS011;14402;48.178;11.566;2023-02-25T02:51:44;1.7;;;1.5;;
26824;SDS011;14402;48.178;11.566;2023-02-25T02:52:13;1.7;;;1.5;;
26824;SDS011;14402;48.178;11.566;2023-02-25T02:52:44;1.7;;;1.4;;
26824;SDS011;14402;48.178;11.566;2023-02-25T02:53:15;1.7;;;1.3;;
26824;SDS011;14402;48.178;11.566;2023-02-25T02:53:44;1.7;;;1.3;;
26824;SDS011;14402;48.178;11.566;2023-02-25T02:54:13;1.7;;;1.3;;
26824;SDS011;14402;48.178;11.566;2023-02-25T02:54:44;1.7;;;1.3;;
26824;SDS011;14402;48.178;11.566;2023-02-25T02:55:14;1.7;;;1.4;;
26824;SDS011;14402;48.178;11.566;2023-02-25T02:55:44;1.7;;;1.4;;
26824;SDS011;14402;48.178;11.566;2023-02-25T02:56:14;1.7;;;1.4;;
26824;SDS011;14402;48.178;11.566;2023-02-25T02:56:44;1.5;;;1.3;;
26824;SDS011;14402;48.178;11.566;2023-02-25T02:57:14;1.3;;;1.2;;
26824;SDS011;14402;48.178;11.566;2023-02-25T02:57:44;1.3;;;1.2;;
26824;SDS011;14402;48.178;11.566;2023-02-25T02:58:15;1.3;;;1.2;;
26824;SDS011;14402;48.178;11.566;2023-02-25T02:58:45;1.6;;;1.3;;
26824;SDS011;14402;48.178;11.566;2023-02-25T02:59:16;2.0;;;1.4;;
26824;SDS011;14402;48.178;11.566;2023-02-25T02:59:45;2.0;;;1.4;;
26824;SDS011;14402;48.178;11.566;2023-02-25T03:00:15;2.0;;;1.4;;
26824;SDS011;14402;48.178;11.566;2023-02-25T03:00:45;1.6;;;1.3;;
26824;SDS011;14402;48.178;11.566;2023-02-25T03:01:15;1.3;;;1.2;;
26824;SDS011;14402;48.178;11.566;2023-02-25T03:01:47;1.3;;;1.2;;
26824;SDS011;14402;48.178;11.566;2023-02-25T03:02:16;1.3;;;1.2;;
26824;SDS011;14402;48.178;11.566;2023-02-25T03:02:45;1.5;;;1.2;;
26824;SDS011;14402;48.178;11.566;2023-02-25T03:03:15;1.8;;;1.3;;
26824;SDS011;14402;48.178;11.566;2023-02-25T03:03:45;1.8;;;1.3;;
26824;SDS011;14402;48.178;11.566;2023-02-25T03:04:15;1.8;;;1.3;;
26824;SDS011;14402;48.178;11.566;2023-02-25T03:04:45;1.8;;;1.3;;